Time;durP1;ratioP1;P1;durP2;ratioP2;P2;SDS_P1;SDS_P2;PMS_P1;PMS_P2;Temp;Humidity;BMP_temperature;BMP_pressure;BME280_temperature;BME280_humidity;BME280_pressure;Samples;Min_cycle;Max_cycle;Signal;HPM_P1;HPM_P2
2023/08/11 00:01:22;;;;;;;3.58;2.42;;;;;14.90;94688.00;;;;7394616;19;20228;-78
2023/08/11 00:04:06;;;;;;;3.00;2.53;;;;;15.00;94682.00;;;;7395027;19;20168;-79
2023/08/11 00:06:34;;;;;;;3.25;2.50;;;;;15.00;94685.00;;;;7394572;19;20137;-80
2023/08/11 00:09:15;;;;;;;3.00;2.70;;;;;15.00;94678.00;;;;7394059;19;20152;-79
2023/08/11 00:11:44;;;;;;;3.58;2.50;;;;;14.70;94688.00;;;;7395826;19;20156;-81
2023/08/11 00:14:19;;;;;;;4.65;2.70;;;;;14.80;94684.00;;;;7394008;19;20137;-76
2023/08/11 00:16:47;;;;;;;3.65;2.22;;;;;14.80;94677.00;;;;7396204;19;20160;-78
2023/08/11 00:19:22;;;;;;;6.15;2.70;;;;;14.80;94671.00;;;;7395771;19;20158;-79
2023/08/11 00:21:49;;;;;;;3.10;2.80;;;;;14.80;94680.00;;;;7394352;19;20467;-78
2023/08/11 00:24:25;;;;;;;6.32;2.75;;;;;14.90;94690.00;;;;7395645;19;20490;-79
2023/08/11 00:26:52;;;;;;;4.35;2.40;;;;;14.70;94684.00;;;;7392376;19;20604;-78
2023/08/11 00:29:27;;;;;;;3.17;2.58;;;;;14.80;94690.00;;;;7395477;19;20653;-76
2023/08/11 00:32:02;;;;;;;4.07;3.00;;;;;14.80;94685.00;;;;7395595;19;20150;-78
2023/08/11 00:34:36;;;;;;;3.80;2.80;;;;;14.90;94695.00;;;;7393789;19;20156;-78
2023/08/11 00:37:03;;;;;;;3.90;2.60;;;;;15.00;94694.00;;;;7393651;19;20129;-77
2023/08/11 00:39:38;;;;;;;5.00;2.70;;;;;15.00;94694.00;;;;7393861;19;20594;-77
2023/08/11 00:42:06;;;;;;;2.67;2.42;;;;;14.90;94695.00;;;;7393980;19;20604;-75
2023/08/11 00:44:41;;;;;;;4.75;2.65;;;;;14.80;94692.00;;;;7395116;19;20148;-77
2023/08/11 00:47:09;;;;;;;4.15;3.13;;;;;14.80;94688.00;;;;7395858;19;20145;-77
2023/08/11 00:49:36;;;;;;;2.60;2.40;;;;;14.70;94698.00;;;;7398227;19;20135;-77
2023/08/11 00:52:11;;;;;;;3.75;2.92;;;;;14.60;94697.00;;;;7393974;19;20504;-78
2023/08/11 00:54:41;;;;;;;2.95;2.47;;;;;14.50;94690.00;;;;7394380;19;20711;-77
2023/08/11 00:57:10;;;;;;;4.35;2.70;;;;;14.60;94688.00;;;;7392718;19;20147;-77
2023/08/11 00:59:44;;;;;;;5.97;2.88;;;;;14.70;94679.00;;;;7394781;19;20160;-78
2023/08/11 01:02:12;;;;;;;3.65;2.72;;;;;14.70;94694.00;;;;7391721;19;20876;-75
2023/08/11 01:04:48;;;;;;;3.63;2.40;;;;;14.70;94694.00;;;;7393335;19;20165;-79
2023/08/11 01:07:24;;;;;;;4.40;2.30;;;;;14.70;94690.00;;;;7391271;19;20186;-77
2023/08/11 01:10:14;;;;;;;3.38;2.60;;;;;14.50;94695.00;;;;7395265;19;20125;-77
2023/08/11 01:13:06;;;;;;;8.15;2.60;;;;;14.40;94690.00;;;;7392622;19;20205;-77
2023/08/11 01:15:48;;;;;;;3.58;2.70;;;;;14.40;94691.00;;;;7393520;19;20153;-76
2023/08/11 01:18:24;;;;;;;3.00;2.50;;;;;14.50;94683.00;;;;7394173;19;20129;-78
2023/08/11 01:21:03;;;;;;;2.85;2.30;;;;;14.40;94680.00;;;;7393472;19;20208;-78
2023/08/11 01:23:31;;;;;;;3.67;2.65;;;;;14.40;94685.00;;;;7392330;19;20149;-77
2023/08/11 01:26:06;;;;;;;4.78;2.70;;;;;14.30;94688.00;;;;7397908;19;20165;-79
2023/08/11 01:28:41;;;;;;;3.85;2.60;;;;;14.40;94691.00;;;;7403621;19;20208;-77
2023/08/11 01:31:15;;;;;;;3.67;2.70;;;;;14.40;94682.00;;;;7399828;19;20128;-78
2023/08/11 01:33:43;;;;;;;3.35;2.80;;;;;14.40;94675.00;;;;7402352;19;20610;-80
2023/08/11 01:36:11;;;;;;;2.65;2.45;;;;;14.50;94683.00;;;;7400823;19;20541;-77
2023/08/11 01:38:46;;;;;;;3.50;2.40;;;;;14.40;94680.00;;;;7402193;19;20136;-80
2023/08/11 01:41:14;;;;;;;5.10;2.50;;;;;14.50;94689.00;;;;7402330;19;20165;-77
2023/08/11 01:43:51;;;;;;;3.42;2.63;;;;;14.40;94681.00;;;;7400909;19;20156;-77
2023/08/11 01:46:19;;;;;;;3.75;2.95;;;;;14.40;94682.00;;;;7399632;19;20149;-77
2023/08/11 01:48:57;;;;;;;4.28;2.40;;;;;14.40;94678.00;;;;7402501;19;20154;-79
2023/08/11 01:51:33;;;;;;;5.80;2.33;;;;;14.40;94676.00;;;;7400077;19;20146;-79
2023/08/11 01:54:08;;;;;;;3.38;2.88;;;;;14.40;94678.00;;;;7400310;19;20539;-78
2023/08/11 01:56:42;;;;;;;5.97;2.22;;;;;14.50;94679.00;;;;7400290;19;20600;-78
2023/08/11 01:59:16;;;;;;;3.35;2.50;;;;;14.50;94682.00;;;;7400499;19;20137;-76
2023/08/11 02:01:44;;;;;;;5.18;2.30;;;;;14.50;94681.00;;;;7398589;19;20172;-78
2023/08/11 02:04:18;;;;;;;2.78;2.40;;;;;14.50;94681.00;;;;7402124;19;20128;-78
2023/08/11 02:06:59;;;;;;;2.50;2.17;;;;;14.60;94679.00;;;;7398689;19;20151;-79
2023/08/11 02:09:43;;;;;;;3.78;2.50;;;;;14.60;94682.00;;;;7400819;19;20140;-78
2023/08/11 02:12:18;;;;;;;3.15;2.20;;;;;14.60;94675.00;;;;7400015;19;20152;-80
2023/08/11 02:14:53;;;;;;;4.13;2.38;;;;;14.60;94677.00;;;;7400701;19;20600;-76
2023/08/11 02:17:28;;;;;;;3.60;2.40;;;;;14.50;94668.00;;;;7400109;19;20147;-77
2023/08/11 02:20:16;;;;;;;4.25;2.40;;;;;14.40;94673.00;;;;7400334;19;20173;-78
2023/08/11 02:22:52;;;;;;;5.85;2.47;;;;;14.50;94673.00;;;;7402680;19;20133;-80
2023/08/11 02:25:26;;;;;;;3.10;2.47;;;;;14.50;94667.00;;;;7401981;19;20134;-79
2023/08/11 02:27:54;;;;;;;3.10;2.20;;;;;14.40;94670.00;;;;7397376;19;20133;-79
2023/08/11 02:30:24;;;;;;;3.60;2.50;;;;;14.60;94669.00;;;;7400899;19;20137;-78
2023/08/11 02:32:58;;;;;;;3.08;2.20;;;;;14.50;94665.00;;;;7401661;19;20148;-79
2023/08/11 02:35:27;;;;;;;2.08;1.88;;;;;14.60;94670.00;;;;7399878;19;20148;-79
2023/08/11 02:38:01;;;;;;;2.72;2.15;;;;;14.60;94663.00;;;;7398190;19;20149;-79
2023/08/11 02:40:28;;;;;;;2.50;2.08;;;;;14.70;94670.00;;;;7399101;19;20169;-81
2023/08/11 02:43:03;;;;;;;8.27;2.70;;;;;14.70;94669.00;;;;7399578;19;20144;-78
2023/08/11 02:45:31;;;;;;;4.00;2.30;;;;;14.60;94671.00;;;;7399667;19;20157;-75
2023/08/11 02:48:05;;;;;;;2.72;2.13;;;;;14.60;94667.00;;;;7397671;19;20133;-78
2023/08/11 02:50:41;;;;;;;3.80;1.98;;;;;14.70;94660.00;;;;7398423;19;20151;-75
2023/08/11 02:53:17;;;;;;;2.42;1.90;;;;;14.60;94667.00;;;;7397772;19;20132;-77
2023/08/11 02:55:46;;;;;;;2.42;2.00;;;;;14.50;94668.00;;;;7397092;19;20141;-77
2023/08/11 02:58:21;;;;;;;2.22;2.00;;;;;14.40;94662.00;;;;7399615;19;20133;-76
2023/08/11 03:00:49;;;;;;;3.20;2.20;;;;;14.50;94668.00;;;;7399079;19;20687;-76
2023/08/11 03:03:25;;;;;;;2.70;2.47;;;;;14.40;94664.00;;;;7398340;19;20482;-77
2023/08/11 03:06:00;;;;;;;2.45;1.83;;;;;14.40;94657.00;;;;7397366;19;20231;-79
2023/08/11 03:08:41;;;;;;;2.55;2.08;;;;;14.20;94668.00;;;;7396684;19;20491;-78
2023/08/11 03:11:16;;;;;;;4.00;1.98;;;;;14.20;94666.00;;;;7400749;19;20208;-76
2023/08/11 03:13:52;;;;;;;2.47;2.05;;;;;14.20;94659.00;;;;7395594;19;20141;-78
2023/08/11 03:16:20;;;;;;;3.28;2.00;;;;;14.30;94653.00;;;;7397856;19;20612;-78
2023/08/11 03:18:54;;;;;;;4.05;2.10;;;;;14.60;94663.00;;;;7399419;19;20592;-77
2023/08/11 03:21:29;;;;;;;2.20;1.90;;;;;14.60;94657.00;;;;7397838;19;20604;-77
2023/08/11 03:24:04;;;;;;;2.75;2.13;;;;;14.50;94647.00;;;;7398082;19;20159;-77
2023/08/11 03:26:32;;;;;;;2.22;2.00;;;;;14.50;94653.00;;;;7399787;19;20478;-77
2023/08/11 03:29:08;;;;;;;2.53;2.03;;;;;14.60;94655.00;;;;7400100;19;20220;-77
2023/08/11 03:35:10;;;;;;;3.30;2.35;;;;;14.40;94648.00;;;;7394076;19;20626;-78
2023/08/11 03:37:45;;;;;;;3.92;2.30;;;;;14.60;94660.00;;;;7397270;19;20140;-77
2023/08/11 03:40:13;;;;;;;6.50;2.50;;;;;14.70;94654.00;;;;7399897;19;20129;-78
2023/08/11 03:42:49;;;;;;;2.47;2.00;;;;;14.80;94648.00;;;;7397300;19;20486;-75
2023/08/11 03:45:16;;;;;;;3.72;1.70;;;;;14.70;94648.00;;;;7397350;19;20141;-80
2023/08/11 03:47:51;;;;;;;2.30;2.10;;;;;14.70;94648.00;;;;7395848;19;20136;-80
2023/08/11 03:50:18;;;;;;;3.22;2.03;;;;;14.70;94651.00;;;;7397438;19;20172;-77
2023/08/11 03:52:53;;;;;;;2.65;1.90;;;;;14.80;94650.00;;;;7399289;19;20136;-78
2023/08/11 03:55:22;;;;;;;2.72;2.15;;;;;14.70;94655.00;;;;7394905;19;20145;-77
2023/08/11 03:57:57;;;;;;;4.47;2.20;;;;;14.80;94657.00;;;;7397555;19;20659;-77
2023/08/11 04:00:32;;;;;;;2.67;2.00;;;;;14.70;94656.00;;;;7396381;19;20144;-77
2023/08/11 04:03:09;;;;;;;2.35;2.15;;;;;14.60;94656.00;;;;7398907;19;20132;-76
2023/08/11 04:05:38;;;;;;;4.30;2.33;;;;;14.80;94658.00;;;;7382593;19;20699;-78
2023/08/11 04:08:06;;;;;;;2.13;1.88;;;;;14.90;94654.00;;;;7385647;19;20155;-78
2023/08/11 04:10:47;;;;;;;2.83;2.38;;;;;14.90;94652.00;;;;7387118;19;20599;-78
2023/08/11 04:13:16;;;;;;;9.50;2.15;;;;;15.10;94658.00;;;;7388012;19;20590;-78
2023/08/11 04:15:52;;;;;;;5.32;2.50;;;;;15.00;94654.00;;;;7387089;19;20506;-80
2023/08/11 04:18:20;;;;;;;2.88;2.08;;;;;15.10;94643.00;;;;7386852;19;20168;-76
2023/08/11 04:20:54;;;;;;;2.33;2.13;;;;;15.20;94645.00;;;;7385432;19;20591;-76
2023/08/11 04:23:21;;;;;;;4.18;2.20;;;;;15.20;94653.00;;;;7386258;19;20161;-76
2023/08/11 04:25:55;;;;;;;2.83;2.30;;;;;15.20;94654.00;;;;7387906;19;20149;-78
2023/08/11 04:28:24;;;;;;;4.15;1.92;;;;;15.20;94656.00;;;;7387830;19;20139;-75
2023/08/11 04:31:00;;;;;;;3.92;2.10;;;;;15.20;94659.00;;;;7383838;19;20196;-77
2023/08/11 04:33:30;;;;;;;4.22;2.50;;;;;15.40;94661.00;;;;7387193;19;20156;-80
2023/08/11 04:36:04;;;;;;;3.05;2.25;;;;;15.60;94659.00;;;;7387101;19;20674;-85
2023/08/11 04:38:40;;;;;;;6.35;2.30;;;;;15.50;94663.00;;;;7385183;19;20171;-75
2023/08/11 04:41:16;;;;;;;4.50;2.22;;;;;15.80;94660.00;;;;7387076;19;20237;-76
2023/08/11 04:43:44;;;;;;;3.40;2.25;;;;;15.90;94661.00;;;;7388496;19;20479;-76
2023/08/11 04:46:12;;;;;;;3.15;2.25;;;;;16.00;94661.00;;;;7386143;19;20160;-76
2023/08/11 04:48:46;;;;;;;2.88;2.38;;;;;16.20;94665.00;;;;7386505;19;20150;-76
2023/08/11 04:51:28;;;;;;;2.83;2.00;;;;;16.30;94661.00;;;;7389200;19;20135;-77
2023/08/11 04:54:04;;;;;;;2.63;2.17;;;;;16.30;94658.00;;;;7389402;19;20129;-77
2023/08/11 04:56:39;;;;;;;2.75;2.25;;;;;16.30;94660.00;;;;7386979;19;20141;-78
2023/08/11 04:59:21;;;;;;;3.72;2.50;;;;;16.30;94663.00;;;;7384498;19;20148;-77
2023/08/11 05:01:49;;;;;;;2.40;2.03;;;;;16.40;94664.00;;;;7390986;19;20201;-80
2023/08/11 05:04:27;;;;;;;10.23;2.15;;;;;16.30;94663.00;;;;7394594;19;20169;-82
2023/08/11 05:06:55;;;;;;;2.67;2.08;;;;;16.50;94664.00;;;;7396604;19;20509;-80
2023/08/11 05:09:38;;;;;;;5.03;2.33;;;;;16.40;94664.00;;;;7395318;19;20156;-79
2023/08/11 05:12:12;;;;;;;3.60;2.45;;;;;16.80;94664.00;;;;7394764;19;20140;-81
2023/08/11 05:14:40;;;;;;;2.35;2.05;;;;;16.90;94660.00;;;;7396190;19;20157;-80
2023/08/11 05:17:15;;;;;;;5.60;2.40;;;;;17.00;94658.00;;;;7399016;19;20120;-77
2023/08/11 05:19:43;;;;;;;8.20;2.00;;;;;17.00;94661.00;;;;7397166;19;20163;-79
2023/08/11 05:22:20;;;;;;;3.13;2.13;;;;;17.10;94666.00;;;;7394689;19;20148;-80
2023/08/11 05:24:55;;;;;;;3.47;2.22;;;;;17.20;94671.00;;;;7397872;19;20141;-81
2023/08/11 05:27:31;;;;;;;2.97;2.25;;;;;17.40;94670.00;;;;7392078;19;20140;-77
2023/08/11 05:30:12;;;;;;;6.18;3.03;;;;;17.70;94671.00;;;;7397785;19;20204;-81
2023/08/11 05:32:50;;;;;;;3.10;2.35;;;;;17.70;94674.00;;;;7394114;19;20149;-78
2023/08/11 05:35:24;;;;;;;2.78;2.47;;;;;17.90;94675.00;;;;7394174;19;20148;-81
2023/08/11 05:37:52;;;;;;;3.58;2.80;;;;;18.00;94678.00;;;;7394572;19;20152;-79
2023/08/11 05:40:20;;;;;;;2.83;2.38;;;;;18.00;94674.00;;;;7395880;19;20162;-82
2023/08/11 05:42:55;;;;;;;2.53;2.33;;;;;18.10;94671.00;;;;7399915;19;20132;-81
2023/08/11 05:45:30;;;;;;;7.07;2.90;;;;;18.20;94685.00;;;;7395407;19;20145;-81
2023/08/11 05:48:00;;;;;;;4.05;2.63;;;;;18.40;94682.00;;;;7394528;19;20154;-80
2023/08/11 05:50:34;;;;;;;3.53;2.67;;;;;18.50;94680.00;;;;7393616;19;20148;-81
2023/08/11 05:53:02;;;;;;;5.90;2.80;;;;;18.70;94675.00;;;;7394971;19;20133;-81
2023/08/11 05:55:30;;;;;;;4.95;2.45;;;;;18.80;94678.00;;;;7395311;19;20612;-80
2023/08/11 05:58:05;;;;;;;3.83;2.53;;;;;19.00;94677.00;;;;7391875;19;20177;-79
2023/08/11 06:00:40;;;;;;;2.58;2.35;;;;;19.10;94677.00;;;;7392341;19;20152;-78
2023/08/11 06:03:29;;;;;;;3.08;2.47;;;;;19.30;94676.00;;;;7395185;19;20572;-80
2023/08/11 06:06:04;;;;;;;5.85;2.92;;;;;19.40;94672.00;;;;7392871;19;20151;-81
2023/08/11 06:08:32;;;;;;;4.32;2.65;;;;;19.50;94679.00;;;;7392382;19;20187;-81
2023/08/11 06:11:07;;;;;;;3.03;2.65;;;;;19.50;94678.00;;;;7393683;19;20132;-80
2023/08/11 06:13:36;;;;;;;2.90;2.60;;;;;19.60;94673.00;;;;7394305;19;20148;-83
2023/08/11 06:16:11;;;;;;;4.43;2.83;;;;;19.70;94675.00;;;;7393908;19;20148;-83
2023/08/11 06:18:46;;;;;;;4.22;2.53;;;;;19.80;94677.00;;;;7394121;19;20136;-79
2023/08/11 06:21:17;;;;;;;3.70;2.75;;;;;19.90;94681.00;;;;7394178;19;20137;-81
2023/08/11 06:23:51;;;;;;;2.85;2.55;;;;;20.10;94676.00;;;;7393793;19;20129;-81
2023/08/11 06:26:19;;;;;;;5.15;2.53;;;;;20.20;94684.00;;;;7394190;19;20145;-83
2023/08/11 06:28:54;;;;;;;3.65;2.67;;;;;20.20;94675.00;;;;7393659;19;20149;-81
2023/08/11 06:31:28;;;;;;;6.38;3.00;;;;;20.20;94683.00;;;;7394530;19;20454;-79
2023/08/11 06:34:02;;;;;;;8.45;2.63;;;;;20.40;94691.00;;;;7394062;19;20288;-79
2023/08/11 06:36:31;;;;;;;5.90;2.58;;;;;20.40;94679.00;;;;7393692;19;20144;-79
2023/08/11 06:39:06;;;;;;;3.20;2.50;;;;;20.70;94681.00;;;;7393497;19;20140;-80
2023/08/11 06:41:41;;;;;;;4.43;2.58;;;;;20.80;94680.00;;;;7394173;19;20152;-77
2023/08/11 06:44:20;;;;;;;3.58;2.60;;;;;21.00;94683.00;;;;7393190;19;20831;-79
2023/08/11 06:46:48;;;;;;;3.67;2.83;;;;;21.10;94683.00;;;;7393162;19;20124;-82
2023/08/11 06:49:24;;;;;;;4.45;3.05;;;;;21.30;94673.00;;;;7393415;19;20204;-79
2023/08/11 06:51:58;;;;;;;3.03;2.70;;;;;21.40;94675.00;;;;7394656;19;20591;-81
2023/08/11 06:54:33;;;;;;;4.22;2.63;;;;;21.50;94680.00;;;;7393019;19;20144;-80
2023/08/11 06:57:04;;;;;;;2.97;2.67;;;;;21.70;94684.00;;;;7389710;19;20638;-81
2023/08/11 06:59:41;;;;;;;3.38;2.70;;;;;21.80;94681.00;;;;7391623;19;20125;-80
2023/08/11 07:02:09;;;;;;;2.70;2.42;;;;;21.90;94689.00;;;;7393138;19;20222;-81
2023/08/11 07:04:44;;;;;;;3.70;2.72;;;;;22.10;94680.00;;;;7396310;19;20144;-82
2023/08/11 07:07:19;;;;;;;3.42;2.60;;;;;22.30;94688.00;;;;7394635;19;20148;-80
2023/08/11 07:09:59;;;;;;;4.18;2.55;;;;;22.50;94693.00;;;;7391943;19;20309;-81
2023/08/11 07:12:35;;;;;;;4.93;2.83;;;;;22.70;94692.00;;;;7390342;19;20167;-82
2023/08/11 07:15:09;;;;;;;3.10;2.70;;;;;22.80;94692.00;;;;7393467;19;20188;-83
2023/08/11 07:17:44;;;;;;;3.50;2.72;;;;;23.00;94695.00;;;;7393487;19;20144;-82
2023/08/11 07:20:20;;;;;;;3.20;2.90;;;;;23.20;94696.00;;;;7394023;19;20124;-81
2023/08/11 07:22:55;;;;;;;4.43;2.92;;;;;23.40;94689.00;;;;7389642;19;20133;-78
2023/08/11 07:25:23;;;;;;;2.97;2.47;;;;;23.50;94693.00;;;;7385220;19;20197;-79
2023/08/11 07:27:59;;;;;;;2.45;2.25;;;;;23.50;94697.00;;;;7390952;19;20163;-79
2023/08/11 07:30:30;;;;;;;3.03;2.65;;;;;23.60;94695.00;;;;7388879;19;20151;-78
2023/08/11 07:33:04;;;;;;;5.80;2.85;;;;;23.70;94703.00;;;;7388998;19;20469;-81
2023/08/11 07:35:32;;;;;;;3.63;2.78;;;;;23.90;94705.00;;;;7387287;19;20153;-78
2023/08/11 07:38:06;;;;;;;2.58;2.38;;;;;23.90;94708.00;;;;7387567;19;20149;-80
2023/08/11 07:40:40;;;;;;;3.97;2.60;;;;;24.10;94709.00;;;;7385860;19;20144;-80
2023/08/11 07:43:15;;;;;;;3.15;2.72;;;;;24.30;94709.00;;;;7387836;19;20148;-78
2023/08/11 07:45:49;;;;;;;2.60;2.40;;;;;24.20;94706.00;;;;7387479;19;20580;-79
2023/08/11 07:48:36;;;;;;;2.90;2.38;;;;;24.00;94712.00;;;;7385045;19;20200;-78
2023/08/11 07:51:05;;;;;;;3.15;2.78;;;;;23.90;94714.00;;;;7387860;19;20220;-78
2023/08/11 07:53:44;;;;;;;4.28;2.70;;;;;24.20;94710.00;;;;7387056;19;20632;-76
2023/08/11 07:56:13;;;;;;;4.57;2.80;;;;;24.30;94719.00;;;;7381226;19;20208;-76
2023/08/11 07:58:47;;;;;;;3.38;2.97;;;;;24.20;94719.00;;;;7383482;19;20477;-76
2023/08/11 08:01:18;;;;;;;4.30;3.40;;;;;24.40;94727.00;;;;7385459;19;20172;-79
2023/08/11 08:03:53;;;;;;;7.63;3.85;;;;;24.20;94701.00;;;;7386180;19;20136;-78
2023/08/11 08:06:21;;;;;;;5.10;3.13;;;;;24.20;94736.00;;;;7386228;19;20643;-78
2023/08/11 08:09:02;;;;;;;3.72;3.03;;;;;24.30;94734.00;;;;7385449;19;20189;-78
2023/08/11 08:11:30;;;;;;;5.07;3.40;;;;;24.30;94745.00;;;;7384487;19;20152;-79
2023/08/11 08:14:04;;;;;;;4.88;3.20;;;;;24.40;94738.00;;;;7386445;19;20165;-80
2023/08/11 08:16:32;;;;;;;7.63;3.53;;;;;24.50;94741.00;;;;7380614;19;20496;-78
2023/08/11 08:19:14;;;;;;;3.28;2.83;;;;;24.50;94745.00;;;;7383456;19;20151;-77
2023/08/11 08:21:42;;;;;;;3.85;2.70;;;;;24.50;94740.00;;;;7384980;19;20132;-78
2023/08/11 08:24:17;;;;;;;5.32;2.75;;;;;24.50;94740.00;;;;7385013;19;20164;-78
2023/08/11 08:26:48;;;;;;;2.85;2.63;;;;;24.80;94740.00;;;;7379902;19;20642;-79
2023/08/11 08:29:23;;;;;;;4.63;3.22;;;;;24.80;94748.00;;;;7376702;19;20152;-76
2023/08/11 08:31:58;;;;;;;7.93;3.00;;;;;25.00;94748.00;;;;7376402;19;20148;-77
2023/08/11 08:34:36;;;;;;;3.20;2.90;;;;;25.00;94744.00;;;;7388097;19;20132;-77
2023/08/11 08:37:11;;;;;;;4.65;2.83;;;;;25.00;94745.00;;;;7391387;19;20200;-78
2023/08/11 08:39:39;;;;;;;5.95;2.88;;;;;25.20;94742.00;;;;7393358;19;20584;-77
2023/08/11 08:42:07;;;;;;;3.42;2.60;;;;;25.30;94741.00;;;;7391011;19;20160;-77
2023/08/11 08:44:42;;;;;;;4.10;2.90;;;;;25.10;94741.00;;;;7391156;19;20184;-75
2023/08/11 08:47:12;;;;;;;4.57;2.95;;;;;25.30;94742.00;;;;7389877;19;20152;-77
2023/08/11 08:49:48;;;;;;;3.90;2.95;;;;;25.60;94742.00;;;;7391322;19;20801;-76
2023/08/11 08:52:16;;;;;;;3.63;2.90;;;;;25.70;94738.00;;;;7389686;19;20608;-76
2023/08/11 08:54:51;;;;;;;2.83;2.63;;;;;25.90;94742.00;;;;7390868;19;20147;-77
2023/08/11 08:57:26;;;;;;;4.38;2.70;;;;;25.80;94740.00;;;;7391205;19;20464;-79
2023/08/11 09:00:00;;;;;;;4.90;2.63;;;;;25.80;94740.00;;;;7390248;19;20499;-78
2023/08/11 09:02:35;;;;;;;3.92;2.28;;;;;25.70;94735.00;;;;7390124;19;20639;-76
2023/08/11 09:05:03;;;;;;;2.95;2.60;;;;;25.90;94744.00;;;;7390158;19;20139;-76
2023/08/11 09:07:40;;;;;;;3.30;2.78;;;;;25.90;94737.00;;;;7390444;19;20151;-78
2023/08/11 09:10:21;;;;;;;5.63;2.88;;;;;25.90;94742.00;;;;7391582;19;20491;-76
2023/08/11 09:12:56;;;;;;;5.70;2.42;;;;;26.10;94739.00;;;;7390887;19;20145;-78
2023/08/11 09:15:30;;;;;;;3.00;2.60;;;;;26.30;94744.00;;;;7390119;19;20145;-78
2023/08/11 09:17:59;;;;;;;4.55;2.80;;;;;26.20;94736.00;;;;7391305;19;20515;-77
2023/08/11 09:20:36;;;;;;;4.28;2.80;;;;;26.30;94730.00;;;;7390998;19;20611;-77
2023/08/11 09:23:12;;;;;;;3.15;2.65;;;;;26.40;94727.00;;;;7389971;19;20128;-76
2023/08/11 09:25:46;;;;;;;5.07;2.95;;;;;26.70;94737.00;;;;7388835;19;20584;-78
2023/08/11 09:28:14;;;;;;;5.28;2.80;;;;;26.50;94724.00;;;;7389990;19;20141;-76
2023/08/11 09:30:50;;;;;;;5.07;2.70;;;;;26.60;94734.00;;;;7390451;19;20152;-76
2023/08/11 09:33:20;;;;;;;4.07;2.92;;;;;26.80;94731.00;;;;7388536;19;20159;-78
2023/08/11 09:35:59;;;;;;;4.03;2.50;;;;;27.20;94732.00;;;;7390771;19;20671;-79
2023/08/11 09:38:34;;;;;;;3.22;2.80;;;;;27.00;94723.00;;;;7390974;19;20196;-78
2023/08/11 09:41:07;;;;;;;4.43;2.70;;;;;27.20;94730.00;;;;7389254;19;20144;-78
2023/08/11 09:43:50;;;;;;;3.70;2.63;;;;;27.40;94732.00;;;;7387146;19;20137;-79
2023/08/11 09:46:25;;;;;;;3.83;2.67;;;;;27.70;94732.00;;;;7385570;19;20609;-77
2023/08/11 09:48:56;;;;;;;3.95;2.97;;;;;27.80;94730.00;;;;7388076;19;20177;-79
2023/08/11 09:51:34;;;;;;;3.08;2.70;;;;;27.90;94732.00;;;;7387458;19;20164;-79
2023/08/11 09:54:10;;;;;;;4.85;2.72;;;;;28.30;94732.00;;;;7387938;19;20172;-77
2023/08/11 09:56:40;;;;;;;3.33;3.03;;;;;27.80;94729.00;;;;7386597;19;20187;-78
2023/08/11 09:59:20;;;;;;;4.55;2.80;;;;;28.50;94739.00;;;;7389058;19;20151;-77
2023/08/11 10:01:51;;;;;;;3.13;2.80;;;;;28.50;94732.00;;;;7389206;19;20191;-79
2023/08/11 10:04:39;;;;;;;3.28;2.90;;;;;29.00;94740.00;;;;7387968;19;20267;-79
2023/08/11 10:07:13;;;;;;;5.13;3.03;;;;;28.90;94745.00;;;;7388353;19;20168;-76
2023/08/11 10:09:55;;;;;;;4.07;3.10;;;;;29.20;94744.00;;;;7386933;19;20521;-77
2023/08/11 10:12:24;;;;;;;4.47;2.80;;;;;29.40;94741.00;;;;7389095;19;20128;-79
2023/08/11 10:14:59;;;;;;;8.23;2.97;;;;;29.20;94739.00;;;;7387469;19;20171;-78
2023/08/11 10:17:34;;;;;;;4.20;2.80;;;;;29.40;94743.00;;;;7389725;19;20479;-76
2023/08/11 10:20:09;;;;;;;5.60;2.90;;;;;29.50;94743.00;;;;7386304;19;20164;-78
2023/08/11 10:22:44;;;;;;;4.13;2.90;;;;;29.60;94738.00;;;;7388426;19;20151;-80
2023/08/11 10:25:19;;;;;;;6.20;2.83;;;;;29.50;94737.00;;;;7386962;19;20151;-82
2023/08/11 10:27:55;;;;;;;3.65;2.97;;;;;29.40;94739.00;;;;7389106;19;20151;-79
2023/08/11 10:30:23;;;;;;;5.97;2.80;;;;;29.40;94743.00;;;;7384555;19;20148;-80
2023/08/11 10:32:56;;;;;;;6.10;2.95;;;;;29.70;94749.00;;;;7386658;19;20203;-78
2023/08/11 10:35:42;;;;;;;3.65;3.13;;;;;29.50;94746.00;;;;7387745;19;20151;-78
2023/08/11 10:38:09;;;;;;;3.95;2.80;;;;;29.40;94736.00;;;;7388800;19;20132;-78
2023/08/11 10:40:48;;;;;;;4.32;3.13;;;;;29.50;94752.00;;;;7388515;19;20136;-77
2023/08/11 10:43:32;;;;;;;3.47;3.03;;;;;29.00;94749.00;;;;7389439;19;20491;-75
2023/08/11 10:46:30;;;;;;;6.57;2.90;;;;;29.40;94752.00;;;;7386937;19;20208;-78
2023/08/11 10:49:04;;;;;;;3.50;3.17;;;;;29.50;94755.00;;;;7387125;19;20642;-77
2023/08/11 10:51:34;;;;;;;3.78;3.15;;;;;29.60;94754.00;;;;7387652;19;20140;-77
2023/08/11 10:54:22;;;;;;;5.30;3.05;;;;;29.60;94757.00;;;;7387743;19;20128;-80
2023/08/11 10:56:52;;;;;;;4.68;3.03;;;;;29.80;94750.00;;;;7385656;19;20693;-79
2023/08/11 10:59:31;;;;;;;7.60;3.67;;;;;29.90;94746.00;;;;7385483;19;20141;-78
2023/08/11 11:02:05;;;;;;;3.50;2.90;;;;;29.50;94746.00;;;;7385874;19;20540;-80
2023/08/11 11:04:43;;;;;;;3.30;3.00;;;;;29.50;94745.00;;;;7387498;19;20140;-80
2023/08/11 11:07:14;;;;;;;3.83;3.30;;;;;29.70;94745.00;;;;7387540;19;20156;-77
2023/08/11 11:10:01;;;;;;;3.40;2.88;;;;;29.90;94739.00;;;;7385195;19;20779;-80
2023/08/11 11:12:31;;;;;;;3.00;2.80;;;;;29.80;94739.00;;;;7386526;19;20184;-79
2023/08/11 11:15:06;;;;;;;4.40;2.70;;;;;29.50;94737.00;;;;7387347;19;20144;-74
2023/08/11 11:17:42;;;;;;;4.93;3.40;;;;;29.50;94736.00;;;;7386538;19;20666;-79
2023/08/11 11:20:17;;;;;;;4.30;3.00;;;;;29.90;94730.00;;;;7384036;19;20508;-76
2023/08/11 11:22:53;;;;;;;3.33;2.85;;;;;30.00;94731.00;;;;7386743;19;20128;-77
2023/08/11 11:25:28;;;;;;;3.97;2.70;;;;;29.90;94722.00;;;;7387062;19;20168;-78
2023/08/11 11:28:03;;;;;;;3.35;2.83;;;;;30.30;94719.00;;;;7385461;19;20505;-78
2023/08/11 11:30:38;;;;;;;3.28;2.97;;;;;30.80;94716.00;;;;7378114;19;20136;-78
2023/08/11 11:33:07;;;;;;;4.38;3.28;;;;;30.70;94719.00;;;;7386006;19;20629;-78
2023/08/11 11:35:42;;;;;;;3.33;2.85;;;;;31.10;94724.00;;;;7384281;19;20158;-79
2023/08/11 11:38:10;;;;;;;5.53;3.00;;;;;31.20;94726.00;;;;7387231;19;20519;-78
2023/08/11 11:40:48;;;;;;;3.90;2.80;;;;;31.60;94724.00;;;;7388140;19;20500;-78
2023/08/11 11:43:16;;;;;;;3.30;3.00;;;;;31.40;94727.00;;;;7387894;19;20135;-79
2023/08/11 11:45:52;;;;;;;3.83;3.35;;;;;31.70;94732.00;;;;7385762;19;20150;-77
2023/08/11 11:48:21;;;;;;;3.92;3.10;;;;;32.00;94726.00;;;;7387210;19;20124;-77
2023/08/11 11:50:56;;;;;;;3.17;2.80;;;;;31.20;94719.00;;;;7384967;19;20138;-79
2023/08/11 11:53:31;;;;;;;4.05;3.00;;;;;32.10;94713.00;;;;7386964;19;20477;-79
2023/08/11 11:56:07;;;;;;;4.65;2.83;;;;;29.90;94723.00;;;;7385962;19;20322;-78
2023/08/11 11:58:48;;;;;;;5.80;2.83;;;;;30.50;94720.00;;;;7383296;19;20216;-78
2023/08/11 12:01:27;;;;;;;5.85;3.00;;;;;31.30;94720.00;;;;7384831;19;20179;-79
2023/08/11 12:04:03;;;;;;;4.07;2.90;;;;;31.20;94723.00;;;;7384743;19;20150;-78
2023/08/11 12:06:31;;;;;;;4.65;2.85;;;;;32.00;94717.00;;;;7385899;19;20140;-80
2023/08/11 12:09:19;;;;;;;3.70;2.60;;;;;32.00;94722.00;;;;7382982;19;20152;-77
2023/08/11 12:11:55;;;;;;;4.88;3.10;;;;;32.60;94712.00;;;;7385787;19;20824;-79
2023/08/11 12:14:29;;;;;;;4.97;2.97;;;;;32.30;94720.00;;;;7385731;19;20150;-80
2023/08/11 12:17:00;;;;;;;3.42;3.00;;;;;32.20;94717.00;;;;7387014;19;20436;-78
2023/08/11 12:19:34;;;;;;;3.22;2.95;;;;;32.60;94715.00;;;;7386600;19;20759;-78
2023/08/11 12:22:09;;;;;;;4.65;2.80;;;;;32.50;94717.00;;;;7385713;19;20624;-80
2023/08/11 12:24:40;;;;;;;4.13;3.55;;;;;33.30;94718.00;;;;7388501;19;20567;-79
2023/08/11 12:27:13;;;;;;;3.60;3.30;;;;;33.10;94720.00;;;;7384439;19;20151;-80
2023/08/11 12:29:41;;;;;;;4.13;3.08;;;;;33.40;94727.00;;;;7381045;19;20156;-78
2023/08/11 12:32:16;;;;;;;3.50;3.20;;;;;33.30;94720.00;;;;7384549;19;20152;-80
2023/08/11 12:34:51;;;;;;;3.20;2.90;;;;;33.70;94720.00;;;;7383769;19;20127;-79
2023/08/11 12:37:29;;;;;;;3.03;2.72;;;;;33.20;94722.00;;;;7384880;19;20203;-79
2023/08/11 12:40:04;;;;;;;3.08;2.80;;;;;33.00;94722.00;;;;7385183;19;20595;-78
2023/08/11 12:42:39;;;;;;;3.17;2.78;;;;;33.10;94722.00;;;;7385199;19;20136;-79
2023/08/11 12:45:13;;;;;;;4.25;2.97;;;;;32.80;94727.00;;;;7382583;19;20136;-80
2023/08/11 12:47:48;;;;;;;3.60;3.30;;;;;33.40;94721.00;;;;7383891;19;20156;-78
2023/08/11 12:50:15;;;;;;;3.00;2.65;;;;;33.90;94719.00;;;;7384637;19;20132;-78
2023/08/11 12:52:50;;;;;;;4.68;3.30;;;;;33.80;94718.00;;;;7386480;19;20145;-79
2023/08/11 12:55:17;;;;;;;3.20;2.90;;;;;34.30;94721.00;;;;7383033;19;20152;-79